Terminal Aerodrome Forecast
Issued by NWS Omaha/Valley, NE

Home | Current Version | Previous Version | Graphics & Text | Print | Product List | Glossary On
Versions: 1 2 3 4 5 6 7 8 9 10 11 12 13 14 15 16 17 18 19 20 21 22 23 24 25 26 27 28 29 30 31 32 33 34 35 36 37 38 39 40 41 42 43 44 45
000
FTUS43 KOAX 260620 AAA
TAFOFK
TAF AMD
KOFK 260620Z 2606/2706 07005KT 2SM BR OVC003
      TEMPO 2607/2610 3/4SM BR OVC002
     FM261000 03004KT 3/4SM BR OVC002
      TEMPO 2612/2614 1 1/2SM BR OVC004
     FM261400 VRB03KT 2SM BR OVC004
     FM261700 02004KT 4SM BR OVC007
     FM262100 36006KT P6SM OVC015=

USA.gov is the U.S. government's official web portal to all federal, state and local government web resources and services.